DOBRODOŠLI DO Fly Ecuador Virtual

Fly Ecuador Virtual es una organización creada con el fin de brindar una plataforma que permita a los pilotos virtuales, principalmente ecuatorianos, tener un lugar donde registrar sus horas de vuelo, sus certificados de conocimiento adquiridos, las rutas que han volado y los destinos que han visitado. Así mismo, se busca ayudar a todos los pilotos a expandir su conocimiento sobre el mundo de la aviación real y virtual por medio de publicaciones, foros y cursos en línea.

A diferencia de las aerolíneas virtuales tradicionales, Fly Ecuador Virtual no simula las operaciones de una aerolínea del mundo real en específico. Un miembro de Fly Ecuador Virtual tiene toda la libertad de volar cualquier aeronave que opere en el espacio aéreo ecuatoriano real, en cualquier ruta, sea esta nacional o internacional, IFR o VFR, aeronaves monomotor, multimotor o helicópteros. Todo esto con el objetivo de expandir las operaciones virtuales dentro del espacio aéreo ecuatoriano, creando una comunidad en la que se compartan conocimientos y experiencias que beneficien a todos sus integrantes.

El crecimiento de Fly Ecuador Virtual depende de la participación conjunta de todos sus miembros, por este motivo se incentiva la participación en línea a través de los diferentes medios descritos más adelante en este sitio web.

 STATISTIKA

Piloti 77
Vazduhoplova u floti 0
Ruta 0
Ukupno sati: 10512.00
Letova ukupno 1677
Broj redovnih linija 0
Broj letova Charter 1724
% Redovne linije 0.00 %

 POSLEDNJI LETOVI

NadimakPilotOdlazakDolazakDatumVreme leta
ECU024Arturo Carvajal  SEQM  SERO 2018-10-14 0.88
ECU070Luis Jaramillo  SPJC  SEGU 2018-09-30 1.48
ECU070Luis Jaramillo  SEGU  SPJC 2018-09-29 1.82
ECU070Luis Jaramillo  SKCL  SEGU 2018-09-16 1.24
ECU024Arturo Carvajal  SEGU  SEQM 2018-09-16 0.54

 OD SKORO SA NAMA

 Consultar METAR

METAR
SEGU - José Joaquín de Olmedo International Airport, Guayaquil, ECU
Distance from station: N 0mi, 0km
Updated: Mon, 22-Oct-2018 6:00am PDT
Mostly Cloudy
Mostly Cloudy
 Wind from SW
Wind: SW 7 mph , 11 km/h
Temperature: 73°F , 23°C
Dew Point: 64°F , 18°C
Humidity: 74%
Barometer: 29.91 inHg , 1013 hPa
Clouds: Mostly Cloudy
Visibility: 6 miles , 10 km
Cloud details: Few Clouds 1500 ft
Mostly Cloudy 4000 ft
Mostly Cloudy 10000 ft
2018/10/22 13:00 SEGU 221300Z 22006KT 9999 FEW015 BKN040 BKN100 23/18 Q1013 NOSIG RMK A2992
 
SEQM - Aeropuerto Internacional Mariscal Sucre, ECU
Distance from station: NE 120mi, 200km
Updated: Mon, 22-Oct-2018 6:00am PDT
Mostly Cloudy
Mostly Cloudy
 Wind from S
Wind: S 2 mph , 4 km/h
Temperature: 55°F , 13°C
Dew Point: 46°F , 8°C
Humidity: 72%
Barometer: 30.33 inHg , 1027 hPa
Clouds: Mostly Cloudy
Visibility: 6 miles , 10 km
Cloud details: Few Clouds 2300 ft
Partly Cloudy 7000 ft
Mostly Cloudy 30000 ft
2018/10/22 13:00 SEQM 221300Z 18002KT 9999 FEW023 SCT070 BKN300 13/08 Q1027 NOSIG RMK A3035
 
SECU - Mariscal Lamar Airpor, ECU
Distance from station: ENE 80mi, 120km
Updated: Mon, 22-Oct-2018 6:00am PDT
Mostly Cloudy
Mostly Cloudy
 Wind from S
Wind: S 3 mph , 6 km/h
Temperature: 57°F , 14°C
Dew Point: 48°F , 9°C
Humidity: 72%
Barometer: 30.3 inHg , 1026 hPa
Clouds: Mostly Cloudy
Visibility: 6 miles , 10 km
Cloud details: Few Clouds 3000 ft
Mostly Cloudy 10000 ft
2018/10/22 13:00 SECU 221300Z 18003KT 9999 FEW030 BKN100 14/09 Q1026
 
SELT - Cotopaxi International Airport, ECU
Distance from station: NW 21mi, 34km
Updated: Mon, 22-Oct-2018 6:00am PDT
Mostly Cloudy
Mostly Cloudy
 Wind from N
Wind: N 5 mph , 7 km/h
Temperature: 54°F , 12°C
Dew Point: 41°F , 5°C
Humidity: 63%
Barometer: 30.42 inHg , 1030 hPa
Clouds: Mostly Cloudy
Visibility: 6 miles , 10 km
Cloud details: Few Clouds 4000 ft
Mostly Cloudy 30000 ft
2018/10/22 13:00 SELT 221300Z 35004KT 9999 FEW040 BKN300 12/05 Q1030
 
SEMT - Eloy Alfaro International Airport, ECU
Distance from station: SSE 70mi, 100km
Updated: Mon, 22-Oct-2018 6:00am PDT
Overcast
Overcast
 Wind from SW
Wind: SW 9 mph , 15 km/h
Temperature: 72°F , 22°C
Dew Point: 68°F , 20°C
Humidity: 88%
Barometer: 29.94 inHg , 1014 hPa
Clouds: Overcast
Visibility: 6 miles , 10 km
Cloud details: Overcast 2000 ft
2018/10/22 13:00 SEMT 221300Z 23008KT 9999 OVC020 22/20 Q1014 RMK A2995

Metar display script from Saratoga-Weather.org

 NOTAMS

NOTAMDatum



Fly Ecuador Virtual 2018 | System by VAM